x

Georgian Bay (45137) Weather Station

6:00am - Tue 26th Sep 2017 All times are CDT. -5 hours from GMT.

  • Peak Period 2s
  • Wind
    7mph, 9mph gusts
  • Sea Temp 68°f
  • Air Temp 69°f
  • Sea Pressure 1014.7mb
  • Georgian Bay
  • Georgian Bay

More Historic Weather Station data

Upgrade to MSW Pro to gain access to the past 30 days of data for over 8000 Wavebouys and Weather Stations around the globe.

Join

Comparision Forecast

View Surf forecast
   
Tue 09/26 6:00am  -  2s 7 9 mph 1014.7mb 68f 69f
5:00am  -  2s 4 7 mph 1014.7mb 68f 70f
4:00am  -  2s 7 7 mph 1014.7mb 68f 70f
3:00am  -  2s 7 7 mph 1014.9mb 68f 70f
2:00am  -  2s 4 4 mph 1015.3mb 68f 70f
1:00am 0.3ft 2s 4 4 mph 1015.5mb 68f 70f
12:00am 0.3ft 2s 4 7 mph 1015.3mb 68f 70f
Mon 09/25 11:00pm 0.3ft 2s 4 7 mph 1015.5mb 69f 70f
10:00pm 0.3ft 2s 2 4 mph 1015.8mb 69f 70f
9:00pm 0.3ft 2s 7 7 mph 1015.8mb 69f 70f
8:00pm 0.3ft 2s 2 4 mph 1015.7mb 69f 70f
7:00pm 0.3ft 2s 4 4 mph 1015.7mb 69f 70f
6:00pm 0.3ft 2s 4 4 mph 1015.9mb 69f 70f
5:00pm 0.3ft 2s 7 7 mph 1016.1mb 69f 71f
4:00pm 0.3ft 2s 4 4 mph 1016.3mb 69f 71f
2:00pm 0.3ft 2s 7 9 mph 1016.9mb 69f 71f
1:00pm 0.3ft 2s 7 9 mph 1017.5mb 68f 70f
12:00pm 0.3ft 2s 9 9 mph 1018.1mb 68f 70f
11:00am 0.3ft 2s 9 9 mph 1018mb 68f 69f
10:00am 0.3ft 2s 9 9 mph 1018.2mb 68f 69f
9:00am 0.3ft 2s 7 9 mph 1018.2mb 68f 69f
8:00am 0.3ft 2s 7 9 mph 1018.1mb 67f 69f
7:00am 0.3ft 2s 7 9 mph 1018mb 67f 69f
6:00am 0.3ft 2s 7 9 mph 1017.5mb 67f 69f
5:00am 0.3ft 2s 9 11 mph 1017.2mb 67f 70f
4:00am 0.3ft 2s 11 11 mph 1017.3mb 67f 70f
3:00am 0.3ft 2s 9 11 mph 1017.4mb 68f 70f
2:00am 0.3ft 2s 9 9 mph 1017.4mb 68f 70f
1:00am 0.3ft 2s 9 9 mph 1017.7mb 68f 70f
12:00am 0.3ft 2s 9 9 mph 1017.8mb 69f 70f
Sun 09/24 11:00pm 0.3ft 2s 7 9 mph 1018.1mb 69f 71f
10:00pm 0.3ft 2s 7 7 mph 1018.1mb 69f 71f
9:00pm 0.3ft 2s 4 7 mph 1018.6mb 69f 70f
8:00pm 0.3ft 2s 2 4 mph 1018.6mb 69f 71f
7:00pm 0.3ft 2s 2 2 mph 1018.6mb 69f 71f
6:00pm 0.3ft 3s 2 2 mph 1018.6mb 70f 71f
5:00pm 0.3ft 3s 2 4 mph 1018.7mb 71f 72f
4:00pm 0.3ft 3s 2 2 mph 1018.9mb 71f 73f
3:00pm 0.3ft 3s 4 4 mph 1019.3mb 70f 72f
2:00pm 0.3ft 2s 4 4 mph 1019.6mb 70f 71f
1:00pm 0.3ft 2s 7 7 mph 1019.9mb 69f 71f
12:00pm 0.3ft 2s 4 4 mph 1020.4mb 69f 70f
11:00am 0.3ft 2s 4 7 mph 1020.4mb 69f 70f
10:00am 0.3ft 2s 4 4 mph 1020.3mb 67f 69f
9:00am 0.3ft 2s 7 9 mph 1020.2mb 67f 69f
8:00am 0.3ft 3s 4 4 mph 1020.1mb 67f 68f
7:00am 0.7ft 3s 4 4 mph 1020.1mb 67f 68f
6:00am 0.7ft 3s 4 4 mph 1020mb 67f 68f
5:00am 0.7ft 3s 7 7 mph 1019.7mb 67f 69f
4:00am 0.7ft 3s 4 7 mph 1019.6mb 67f 69f
3:00am 0.7ft 2s 4 7 mph 1019.4mb 67f 69f
2:00am 0.3ft 2s 4 4 mph 1019.3mb 67f 68f
1:00am 0.7ft 3s 4 4 mph 1019mb 67f 68f
12:00am 0.7ft 2s 2 4 mph 1018.6mb 67f 69f
Sat 09/23 11:00pm 0.7ft 3s 7 9 mph 1018.4mb 67f 70f
10:00pm 0.7ft 3s 4 4 mph 1018.5mb 67f 69f
9:00pm 0.7ft 3s 4 7 mph 1018.3mb 67f 68f
8:00pm 0.7ft 3s 7 7 mph 1018mb 67f 69f
7:00pm 0.7ft 3s 7 7 mph 1018mb 67f 69f
6:00pm 0.7ft 2s 7 9 mph 1018mb 67f 70f
5:00pm 0.7ft 3s 9 9 mph 1017.7mb 67f 70f
4:00pm 0.3ft 2s 11 13 mph 1017.8mb 68f 71f
3:00pm 0.3ft 2s 7 7 mph 1018.2mb 68f 69f
2:00pm 0.3ft 2s 7 7 mph 1018.5mb 68f 69f
1:00pm 0.3ft 2s 7 9 mph 1019mb 67f 69f
12:00pm 0.3ft 2s 9 9 mph 1019.6mb 67f 69f
11:00am 0.3ft 2s 11 11 mph 1019.5mb 67f 68f
10:00am 0.3ft 2s 9 11 mph 1019.6mb 66f 68f
9:00am 0.3ft 2s 9 9 mph 1019.4mb 66f 68f
8:00am 0.3ft 2s 7 7 mph 1019.1mb 66f 67f
7:00am 0.3ft 2s 4 7 mph 1018.6mb 66f 67f
6:00am 0.3ft 2s 4 4 mph 1018.6mb 66f 66f
5:00am 0.3ft 2s 2 2 mph 1018.4mb 66f 66f
4:00am 0.3ft 2s 4 7 mph 1017.8mb 66f 67f
3:00am 0.3ft 2s 2 4 mph 1017mb 66f 67f
2:00am 0.7ft 2s 2 4 mph 1016.8mb 66f 67f
1:00am 0.7ft 2s 4 4 mph 1017mb 66f 67f
12:00am 0.7ft 2s 4 4 mph 1016.7mb 66f 68f
Fri 09/22 11:00pm 0.7ft 2s 9 11 mph 1016.7mb 66f 68f
10:00pm 0.3ft 3s 9 11 mph 1015.9mb 66f 69f
9:00pm 0.7ft 3s 4 7 mph 1018.2mb 66f 68f
8:00pm 0.7ft 3s 11 16 mph 1019mb 66f 69f
7:00pm 0.7ft 3s 11 13 mph 1017.4mb 66f 70f
6:00pm 1ft 3s 9 9 mph 1017.4mb 67f 69f
5:00pm 1ft 3s 9 9 mph 1017.9mb 67f 69f
4:00pm 1ft 3s 9 11 mph 1018.1mb 67f 69f
3:00pm 1.3ft 3s 9 11 mph 1018.1mb 67f 68f
2:00pm 1.3ft 3s 9 11 mph 1018.7mb 66f 68f
1:00pm 1.3ft 3s 13 13 mph 1018.8mb 66f 68f